createdAt,value
2023-01-02T00:02:41.514Z,14.60
2023-01-02T00:07:45.512Z,16.70
2023-01-02T00:12:40.841Z,15.70
2023-01-02T00:17:38.889Z,17.33
2023-01-02T00:22:34.129Z,14.13
2023-01-02T00:27:31.821Z,15.05
2023-01-02T00:32:30.098Z,20.48
2023-01-02T00:37:35.754Z,16.77
2023-01-02T00:42:29.330Z,14.40
2023-01-02T00:47:26.829Z,15.15
2023-01-02T00:52:22.253Z,15.95
2023-01-02T00:57:16.011Z,18.42
2023-01-02T01:02:10.290Z,15.98
2023-01-02T01:07:05.563Z,14.70
2023-01-02T01:12:01.129Z,15.53
2023-01-02T01:16:59.202Z,13.98
2023-01-02T01:21:54.309Z,15.37
2023-01-02T01:26:56.741Z,17.50
2023-01-02T01:31:50.331Z,15.93
2023-01-02T01:36:44.079Z,21.97
2023-01-02T01:41:37.989Z,16.83
2023-01-02T01:46:42.262Z,18.20
2023-01-02T01:51:38.910Z,20.13
2023-01-02T01:56:35.139Z,22.85
2023-01-02T02:01:36.265Z,16.92
2023-01-02T02:06:36.486Z,18.80
2023-01-02T02:11:31.873Z,20.00
2023-01-02T02:16:35.492Z,18.43
2023-01-02T02:21:58.868Z,16.90
2023-01-02T02:27:03.920Z,13.65
2023-01-02T02:32:15.114Z,13.65
2023-01-02T02:37:16.375Z,19.83
2023-01-02T02:42:19.731Z,28.00
2023-01-02T02:47:21.586Z,28.70
2023-01-02T02:52:28.154Z,16.30
2023-01-02T02:57:39.971Z,21.43
2023-01-02T03:02:36.542Z,22.40
2023-01-02T03:07:40.511Z,15.77
2023-01-02T03:12:45.837Z,14.68
2023-01-02T03:17:54.803Z,15.00
2023-01-02T03:22:54.327Z,48.77
2023-01-02T03:27:50.863Z,39.17
2023-01-02T03:32:50.891Z,13.10
2023-01-02T03:37:49.981Z,11.90
2023-01-02T03:42:48.260Z,13.70
2023-01-02T03:47:51.414Z,10.55
2023-01-02T03:52:44.765Z,13.40
2023-01-02T03:57:55.196Z,13.60
2023-01-02T04:02:58.018Z,14.97
2023-01-02T04:07:58.311Z,17.13
2023-01-02T04:12:55.090Z,15.90
2023-01-02T04:17:56.173Z,15.40
2023-01-02T04:22:56.422Z,15.77
2023-01-02T04:32:47.805Z,13.77
2023-01-02T04:37:44.553Z,17.07
2023-01-02T04:42:39.051Z,14.07
2023-01-02T04:47:32.419Z,17.13
2023-01-02T04:52:25.694Z,16.40
2023-01-02T04:57:20.482Z,28.73
2023-01-02T05:02:13.928Z,20.43
2023-01-02T05:07:09.242Z,22.67
2023-01-02T05:12:02.587Z,19.57
2023-01-02T05:16:57.360Z,15.97
2023-01-02T05:22:10.407Z,16.70
2023-01-02T05:27:05.565Z,18.27
2023-01-02T05:32:01.269Z,20.70
2023-01-02T05:36:54.746Z,16.20
2023-01-02T05:41:48.147Z,18.27
2023-01-02T05:46:41.528Z,21.47
2023-01-02T05:51:36.794Z,21.13
2023-01-02T05:56:31.633Z,20.47
2023-01-02T06:01:27.159Z,22.77
2023-01-02T06:06:22.874Z,39.80
2023-01-02T06:11:17.514Z,52.93
2023-01-02T06:16:12.793Z,25.80
2023-01-02T06:21:08.158Z,33.40
2023-01-02T06:26:05.292Z,31.53
2023-01-02T06:31:03.284Z,30.20
2023-01-02T06:36:00.468Z,31.67
2023-01-02T06:40:54.978Z,40.37
2023-01-02T06:45:48.411Z,32.03
2023-01-02T06:50:43.162Z,29.40
2023-01-02T06:55:36.642Z,25.00
2023-01-02T07:00:29.961Z,29.30
2023-01-02T07:05:24.943Z,25.43
2023-01-02T07:10:33.368Z,21.13
2023-01-02T07:15:26.595Z,21.63
2023-01-02T07:20:20.030Z,19.80
2023-01-02T07:25:18.453Z,19.00
2023-01-02T07:30:17.403Z,18.77
2023-01-02T07:35:12.241Z,31.67
2023-01-02T07:40:06.239Z,28.10
2023-01-02T07:44:59.521Z,22.27
2023-01-02T07:49:54.270Z,24.27
2023-01-02T07:54:47.791Z,23.63
2023-01-02T07:59:41.035Z,23.73
2023-01-02T08:04:34.316Z,26.00
2023-01-02T08:09:29.019Z,29.17
2023-01-02T08:14:25.520Z,18.77
2023-01-02T08:19:23.264Z,15.38
2023-01-02T08:24:19.002Z,16.70
2023-01-02T08:29:13.870Z,17.75
2023-01-02T08:34:07.435Z,18.20
2023-01-02T08:39:00.913Z,18.83
2023-01-02T08:43:54.499Z,19.05
2023-01-02T08:48:51.599Z,19.25
2023-01-02T08:53:48.489Z,18.20
2023-01-02T08:58:41.929Z,13.10
2023-01-02T09:03:38.387Z,16.20
2023-01-02T09:08:35.704Z,13.27
2023-01-02T09:13:29.085Z,14.98
2023-01-02T09:18:27.359Z,11.38
2023-01-02T09:28:27.048Z,11.90
2023-01-02T09:33:22.985Z,11.30
2023-01-02T09:38:21.925Z,9.38
2023-01-02T09:43:28.904Z,12.75
2023-01-02T09:48:35.212Z,7.05
2023-01-02T09:58:47.827Z,11.38
2023-01-02T10:03:53.582Z,10.63
2023-01-02T10:09:00.140Z,8.25
2023-01-02T10:19:21.097Z,7.28
2023-01-02T10:24:19.188Z,9.17
2023-01-02T10:29:36.030Z,8.52
2023-01-02T10:36:04.488Z,10.65
2023-01-02T10:50:26.478Z,10.88
2023-01-02T11:02:13.086Z,14.50
2023-01-02T11:14:45.718Z,11.07
2023-01-02T11:21:08.295Z,12.00
2023-01-02T11:27:19.142Z,13.10
2023-01-02T11:33:34.490Z,10.95
2023-01-02T11:45:58.408Z,12.40
2023-01-02T11:51:27.639Z,10.48
2023-01-02T11:56:56.382Z,8.93
2023-01-02T12:02:39.494Z,7.53
2023-01-02T12:22:43.269Z,11.73
2023-01-02T12:28:24.268Z,12.57
2023-01-02T12:33:58.579Z,16.83
2023-01-02T12:39:38.401Z,14.18
2023-01-02T12:45:06.565Z,13.50
2023-01-02T12:50:52.452Z,12.77
2023-01-02T12:56:21.941Z,12.83
2023-01-02T13:01:40.507Z,12.52
2023-01-02T13:13:21.952Z,11.85
2023-01-02T13:39:01.076Z,15.90
2023-01-02T13:43:58.006Z,11.77
2023-01-02T13:48:54.245Z,20.10
2023-01-02T13:53:49.531Z,14.25
2023-01-02T13:58:59.496Z,13.85
2023-01-02T14:04:29.566Z,15.43
2023-01-02T14:09:24.528Z,22.63
2023-01-02T14:14:23.944Z,20.25
2023-01-02T14:19:26.468Z,19.73
2023-01-02T14:24:32.892Z,22.58
2023-01-02T14:29:28.568Z,19.17
2023-01-02T14:34:27.291Z,22.77
2023-01-02T14:39:25.684Z,29.67
2023-01-02T14:44:19.361Z,30.67
2023-01-02T14:49:25.814Z,37.40
2023-01-02T14:54:22.979Z,35.78
2023-01-02T14:59:30.729Z,37.03
2023-01-02T15:04:41.293Z,32.28
2023-01-02T15:09:38.362Z,32.53
2023-01-02T15:14:35.397Z,46.10
2023-01-02T15:19:33.785Z,65.50
2023-01-02T15:24:30.479Z,79.63
2023-01-02T15:29:29.109Z,73.50
2023-01-02T15:34:32.054Z,64.55
2023-01-02T15:39:34.378Z,65.22
2023-01-02T15:44:46.835Z,132.30
2023-01-02T15:49:43.980Z,139.57
2023-01-02T15:54:38.279Z,117.90
2023-01-02T15:59:39.599Z,113.60
2023-01-02T16:04:34.530Z,115.40
2023-01-02T16:09:35.165Z,106.40
2023-01-02T16:14:41.903Z,83.75
2023-01-02T16:19:40.912Z,78.15
2023-01-02T16:24:43.398Z,79.22
2023-01-02T16:29:44.522Z,99.05
2023-01-02T16:34:44.007Z,115.22
2023-01-02T16:39:49.970Z,106.03
2023-01-02T16:44:43.457Z,102.40
2023-01-02T16:49:38.883Z,96.13
2023-01-02T16:54:32.212Z,100.18
2023-01-02T16:59:26.984Z,103.38
2023-01-02T17:04:23.137Z,105.97
2023-01-02T17:09:16.766Z,98.40
2023-01-02T17:14:10.920Z,94.55
2023-01-02T17:19:05.944Z,95.28
2023-01-02T17:23:59.286Z,91.60
2023-01-02T17:28:54.601Z,83.22
2023-01-02T17:33:57.045Z,81.25
2023-01-02T17:38:55.580Z,83.05
2023-01-02T17:44:01.981Z,77.72
2023-01-02T17:48:56.964Z,220.95
2023-01-02T17:53:54.267Z,116.35
2023-01-02T17:59:07.340Z,137.05
2023-01-02T18:04:02.196Z,227.10
2023-01-02T18:08:56.881Z,241.68
2023-01-02T18:13:54.258Z,222.60
2023-01-02T18:18:48.237Z,195.88
2023-01-02T18:23:44.473Z,200.07
2023-01-02T18:28:43.154Z,171.73
2023-01-02T18:33:43.073Z,193.90
2023-01-02T18:38:37.922Z,188.02
2023-01-02T18:43:35.929Z,143.73
2023-01-02T18:48:32.528Z,118.30
2023-01-02T18:53:31.369Z,89.55
2023-01-02T18:58:44.209Z,70.07
2023-01-02T19:03:39.154Z,55.67
2023-01-02T19:08:37.678Z,67.78
2023-01-02T19:13:36.649Z,66.90
2023-01-02T19:18:35.607Z,65.35
2023-01-02T19:23:33.526Z,65.47
2023-01-02T19:28:32.059Z,61.17
2023-01-02T19:33:39.598Z,62.45
2023-01-02T19:38:37.274Z,68.67
2023-01-02T19:43:30.529Z,62.17
2023-01-02T19:48:23.819Z,63.55
2023-01-02T19:53:21.298Z,63.47
2023-01-02T19:58:16.126Z,65.37
2023-01-02T20:03:16.836Z,70.00
2023-01-02T20:08:10.603Z,88.40
2023-01-02T20:13:04.083Z,83.53
2023-01-02T20:18:01.422Z,83.30
2023-01-02T20:22:58.392Z,88.00
2023-01-02T20:27:52.364Z,96.63
2023-01-02T20:32:48.881Z,88.53
2023-01-02T20:37:47.746Z,131.30
2023-01-02T20:42:41.149Z,132.50
2023-01-02T20:47:35.615Z,135.93
2023-01-02T20:52:30.113Z,161.63
2023-01-02T20:57:24.741Z,123.17
2023-01-02T21:02:19.840Z,95.33
2023-01-02T21:07:13.244Z,63.80
2023-01-02T21:12:26.819Z,64.10
2023-01-02T21:17:24.607Z,64.70
2023-01-02T21:22:17.929Z,62.53
2023-01-02T21:27:13.436Z,62.87
2023-01-02T21:32:07.204Z,56.10
2023-01-02T21:37:01.902Z,44.33
2023-01-02T21:42:12.480Z,54.43
2023-01-02T21:47:06.170Z,49.92
2023-01-02T21:52:00.291Z,42.80
2023-01-02T21:56:55.070Z,45.53
2023-01-02T22:01:48.514Z,43.70
2023-01-02T22:07:20.902Z,45.10
2023-01-02T22:11:58.445Z,40.43
2023-01-02T22:16:52.751Z,31.90
2023-01-02T22:21:45.948Z,29.37
2023-01-02T22:26:41.847Z,32.93
2023-01-02T22:31:36.592Z,29.17
2023-01-02T22:36:31.643Z,30.77
2023-01-02T22:41:24.963Z,31.70
2023-01-02T22:46:30.984Z,33.70
2023-01-02T22:51:49.726Z,28.60
2023-01-02T22:56:39.082Z,25.97
2023-01-02T23:01:34.613Z,27.20
2023-01-02T23:06:29.293Z,27.73
2023-01-02T23:11:23.213Z,32.17
2023-01-02T23:16:34.757Z,27.67
2023-01-02T23:21:31.488Z,26.07
2023-01-02T23:26:28.754Z,27.80
2023-01-02T23:31:22.072Z,29.80
2023-01-02T23:36:15.264Z,26.93
2023-01-02T23:41:10.024Z,34.87
2023-01-02T23:46:03.257Z,34.50
2023-01-02T23:50:59.894Z,27.73
2023-01-02T23:55:53.138Z,24.37
